createdAt,value
2022-10-24T00:01:43.605Z,98053.63
2022-10-24T00:04:11.953Z,98046.78
2022-10-24T00:06:41.424Z,98049.34
2022-10-24T00:09:09.918Z,98054.47
2022-10-24T00:11:38.830Z,98048.47
2022-10-24T00:14:07.761Z,98043.28
2022-10-24T00:16:36.132Z,98036.31
2022-10-24T00:19:04.511Z,98040.91
2022-10-24T00:21:32.979Z,98038.09
2022-10-24T00:24:01.353Z,98038.31
2022-10-24T00:26:30.559Z,98039.31
2022-10-24T00:29:02.393Z,98040.53
2022-10-24T00:31:30.872Z,98035.78
2022-10-24T00:34:00.615Z,98029.41
2022-10-24T00:36:29.080Z,98039.16
2022-10-24T00:38:57.444Z,98035.75
2022-10-24T00:41:35.051Z,98034.97
2022-10-24T00:44:28.287Z,98038.91
2022-10-24T00:47:09.975Z,98028.53
2022-10-24T00:49:47.083Z,98041.94
2022-10-24T00:52:17.107Z,98031.88
2022-10-24T00:54:45.631Z,98035.69
2022-10-24T00:57:20.504Z,98040.22
2022-10-24T00:59:51.863Z,98043.81
2022-10-24T01:02:22.092Z,98041.81
2022-10-24T01:04:50.462Z,98045.19
2022-10-24T01:07:45.069Z,98041.22
2022-10-24T01:10:22.546Z,98042.97
2022-10-24T01:13:03.254Z,98042.97
2022-10-24T01:15:35.110Z,98038.22
2022-10-24T01:18:07.664Z,98043.00
2022-10-24T01:20:57.549Z,98049.13
2022-10-24T01:23:51.911Z,98050.34
2022-10-24T01:26:40.496Z,98052.53
2022-10-24T01:29:29.887Z,98046.69
2022-10-24T01:32:06.900Z,98041.72
2022-10-24T01:34:55.975Z,98046.94
2022-10-24T01:37:30.083Z,98039.06
2022-10-24T01:40:02.936Z,98042.66
2022-10-24T01:42:31.616Z,98043.53
2022-10-24T01:45:00.228Z,98037.59
2022-10-24T01:47:31.213Z,98031.13
2022-10-24T01:50:01.955Z,98035.09
2022-10-24T01:52:33.113Z,98034.66
2022-10-24T01:55:01.816Z,98024.50
2022-10-24T01:57:31.719Z,98023.63
2022-10-24T02:00:00.095Z,98020.09
2022-10-24T02:02:29.620Z,98019.09
2022-10-24T02:05:06.514Z,98003.50
2022-10-24T02:07:34.916Z,98014.38
2022-10-24T02:10:08.751Z,98007.44
2022-10-24T02:12:38.939Z,98018.38
2022-10-24T02:15:20.515Z,98009.09
2022-10-24T02:17:48.840Z,98011.66
2022-10-24T02:20:17.757Z,98013.25
2022-10-24T02:23:43.755Z,98009.69
2022-10-24T02:26:19.162Z,98007.31
2022-10-24T02:28:48.098Z,98009.91
2022-10-24T02:31:18.748Z,98013.84
2022-10-24T02:33:47.258Z,98022.38
2022-10-24T02:36:17.722Z,98016.81
2022-10-24T02:38:46.342Z,98016.81
2022-10-24T02:41:17.224Z,98021.78
2022-10-24T02:43:46.202Z,98025.75
2022-10-24T02:46:14.560Z,98028.53
2022-10-24T02:48:45.416Z,98028.72
2022-10-24T02:51:14.722Z,98027.72
2022-10-24T02:53:43.782Z,98027.75
2022-10-24T02:56:12.155Z,98029.53
2022-10-24T02:58:40.489Z,98035.25
2022-10-24T03:01:09.929Z,98020.72
2022-10-24T03:03:38.392Z,98029.91
2022-10-24T03:06:07.083Z,98020.41
2022-10-24T03:08:35.421Z,98023.91
2022-10-24T03:11:03.806Z,98030.72
2022-10-24T03:13:33.267Z,98027.00
2022-10-24T03:16:01.680Z,98023.75
2022-10-24T03:18:29.964Z,98015.88
2022-10-24T03:20:58.318Z,98020.09
2022-10-24T03:23:29.489Z,98017.94
2022-10-24T03:25:58.264Z,98010.41
2022-10-24T03:28:26.619Z,98006.44
2022-10-24T03:30:57.179Z,98012.78
2022-10-24T03:33:26.182Z,98019.06
2022-10-24T03:35:54.728Z,98016.22
2022-10-24T03:38:23.308Z,98009.94
2022-10-24T03:40:51.828Z,98015.78
2022-10-24T03:43:20.453Z,98019.31
2022-10-24T03:45:48.763Z,98020.25
2022-10-24T03:48:17.167Z,98012.44
2022-10-24T03:50:45.435Z,98011.84
2022-10-24T03:53:13.758Z,98003.66
2022-10-24T03:55:42.086Z,98012.75
2022-10-24T03:58:10.507Z,98001.91
2022-10-24T04:00:40.858Z,98006.66
2022-10-24T04:03:10.059Z,98007.69
2022-10-24T04:08:08.000Z,98005.72
2022-10-24T04:10:36.414Z,98014.19
2022-10-24T04:13:04.850Z,98012.84
2022-10-24T04:15:33.173Z,98012.78
2022-10-24T04:18:01.509Z,98003.53
2022-10-24T04:20:30.690Z,98000.34
2022-10-24T04:23:01.161Z,98006.72
2022-10-24T04:25:32.170Z,98009.03
2022-10-24T04:28:00.587Z,98002.50
2022-10-24T04:30:29.833Z,97997.72
2022-10-24T04:32:58.920Z,98006.91
2022-10-24T04:35:27.350Z,98007.91
2022-10-24T04:37:55.769Z,97995.44
2022-10-24T04:40:24.216Z,98002.94
2022-10-24T04:42:52.592Z,98000.97
2022-10-24T04:45:21.011Z,98005.53
2022-10-24T04:47:49.351Z,98007.50
2022-10-24T04:50:18.462Z,98007.50
2022-10-24T04:52:48.142Z,98009.69
2022-10-24T04:55:16.647Z,98014.44
2022-10-24T04:57:45.345Z,98011.47
2022-10-24T05:00:14.383Z,98024.75
2022-10-24T05:02:42.836Z,98012.66
2022-10-24T05:05:11.378Z,98022.75
2022-10-24T05:07:39.850Z,98029.91
2022-10-24T05:10:08.680Z,98022.38
2022-10-24T05:12:37.127Z,98028.53
2022-10-24T05:15:06.335Z,98027.13
2022-10-24T05:17:34.748Z,98030.69
2022-10-24T05:20:04.477Z,98030.28
2022-10-24T05:22:33.490Z,98030.69
2022-10-24T05:25:01.927Z,98031.25
2022-10-24T05:27:30.263Z,98028.28
2022-10-24T05:29:59.334Z,98030.28
2022-10-24T05:32:27.704Z,98039.00
2022-10-24T05:34:56.094Z,98031.66
2022-10-24T05:37:24.689Z,98031.25
2022-10-24T05:39:53.181Z,98043.00
2022-10-24T05:42:22.201Z,98029.88
2022-10-24T05:44:50.578Z,98033.63
2022-10-24T05:47:19.286Z,98032.50
2022-10-24T05:49:47.659Z,98022.38
2022-10-24T05:52:16.621Z,98024.56
2022-10-24T05:54:55.152Z,98023.91
2022-10-24T05:57:31.314Z,98032.28
2022-10-24T05:59:59.747Z,98026.47
2022-10-24T06:02:28.969Z,98030.06
2022-10-24T06:04:59.161Z,98033.09
2022-10-24T06:07:27.668Z,98032.84
2022-10-24T06:09:56.115Z,98023.25
2022-10-24T06:12:24.836Z,98026.19
2022-10-24T06:14:57.849Z,98029.22
2022-10-24T06:17:26.552Z,98031.06
2022-10-24T06:19:54.862Z,98030.72
2022-10-24T06:22:28.103Z,98032.75
2022-10-24T06:24:56.794Z,98028.56
2022-10-24T06:27:26.507Z,98032.84
2022-10-24T06:29:54.919Z,98036.22
2022-10-24T06:32:23.956Z,98042.06
2022-10-24T06:34:53.477Z,98047.22
2022-10-24T06:37:21.904Z,98045.03
2022-10-24T06:39:51.325Z,98048.53
2022-10-24T06:42:19.810Z,98052.09
2022-10-24T06:44:48.353Z,98054.72
2022-10-24T06:47:16.834Z,98046.44
2022-10-24T06:49:46.250Z,98050.06
2022-10-24T06:52:15.295Z,98050.19
2022-10-24T06:54:44.581Z,98044.31
2022-10-24T06:57:13.010Z,98054.03
2022-10-24T06:59:42.021Z,98054.16
2022-10-24T07:02:15.424Z,98049.19
2022-10-24T07:04:43.872Z,98056.53
2022-10-24T07:07:16.580Z,98052.06
2022-10-24T07:09:45.103Z,98052.16
2022-10-24T07:12:13.532Z,98052.88
2022-10-24T07:14:42.646Z,98055.69
2022-10-24T07:17:11.020Z,98039.00
2022-10-24T07:19:39.431Z,98042.97
2022-10-24T07:22:07.940Z,98027.00
2022-10-24T07:24:36.423Z,98032.53
2022-10-24T07:27:04.750Z,98034.06
2022-10-24T07:29:33.165Z,98022.97
2022-10-24T07:32:02.376Z,98013.34
2022-10-24T07:34:30.727Z,98016.16
2022-10-24T07:37:00.912Z,98013.34
2022-10-24T07:39:30.494Z,98018.47
2022-10-24T07:41:59.012Z,98014.94
2022-10-24T07:44:27.478Z,98015.06
2022-10-24T07:46:55.918Z,98010.50
2022-10-24T07:49:24.356Z,98010.91
2022-10-24T07:51:53.352Z,98004.13
2022-10-24T07:56:55.763Z,97997.69
2022-10-24T07:59:41.361Z,98002.72
2022-10-24T08:02:14.280Z,97998.56
2022-10-24T08:04:42.738Z,98001.06
2022-10-24T08:07:14.886Z,97993.44
2022-10-24T08:09:46.242Z,97992.31
2022-10-24T08:12:14.863Z,97990.22
2022-10-24T08:14:43.642Z,97978.34
2022-10-24T08:17:12.165Z,97987.09
2022-10-24T08:19:44.198Z,97982.31
2022-10-24T08:22:13.090Z,97986.16
2022-10-24T08:24:43.717Z,97979.28
2022-10-24T08:27:13.580Z,97969.53
2022-10-24T08:29:42.010Z,97976.19
2022-10-24T08:32:10.920Z,97974.38
2022-10-24T08:34:39.489Z,97973.78
2022-10-24T08:37:07.896Z,97967.22
2022-10-24T08:39:36.251Z,97962.22
2022-10-24T08:42:08.832Z,97966.66
2022-10-24T08:44:41.650Z,97961.84
2022-10-24T08:47:31.935Z,97959.06
2022-10-24T08:50:05.196Z,97964.75
2022-10-24T08:53:03.440Z,97966.94
2022-10-24T08:55:49.157Z,97960.66
2022-10-24T08:58:25.391Z,97948.72
2022-10-24T09:00:58.584Z,97948.84
2022-10-24T09:03:55.452Z,97948.16
2022-10-24T09:06:30.662Z,97938.41
2022-10-24T09:09:06.900Z,97946.63
2022-10-24T09:11:44.167Z,97934.75
2022-10-24T09:14:37.292Z,97935.63
2022-10-24T09:17:38.242Z,97929.59
2022-10-24T09:20:29.240Z,97928.56
2022-10-24T09:23:04.982Z,97926.63
2022-10-24T09:25:35.815Z,97919.44
2022-10-24T09:28:05.388Z,97929.94
2022-10-24T09:30:34.628Z,97909.81
2022-10-24T09:33:13.466Z,97916.19
2022-10-24T09:35:41.883Z,97916.56
2022-10-24T09:38:35.828Z,97915.94
2022-10-24T09:41:06.958Z,97911.19
2022-10-24T09:43:40.321Z,97911.19
2022-10-24T09:46:09.771Z,97912.25
2022-10-24T09:48:56.685Z,97913.34
2022-10-24T09:51:43.211Z,97906.53
2022-10-24T09:54:20.495Z,97906.91
2022-10-24T09:57:05.669Z,97900.22
2022-10-24T09:59:33.984Z,97899.59
2022-10-24T10:02:13.162Z,97891.66
2022-10-24T10:04:42.058Z,97890.47
2022-10-24T10:07:12.397Z,97891.59
2022-10-24T10:09:52.666Z,97886.41
2022-10-24T10:12:36.293Z,97878.94
2022-10-24T10:15:19.067Z,97884.56
2022-10-24T10:17:51.340Z,97874.94
2022-10-24T10:20:32.788Z,97874.00
2022-10-24T10:23:26.863Z,97874.78
2022-10-24T10:26:20.640Z,97867.53
2022-10-24T10:28:57.985Z,97863.53
2022-10-24T10:31:43.975Z,97865.91
2022-10-24T10:34:31.039Z,97857.03
2022-10-24T10:37:19.139Z,97869.97
2022-10-24T10:40:15.750Z,97860.22
2022-10-24T10:43:18.723Z,97857.31
2022-10-24T10:45:48.886Z,97857.22
2022-10-24T10:48:38.308Z,97849.84
2022-10-24T10:51:35.971Z,97849.72
2022-10-24T10:54:19.581Z,97844.88
2022-10-24T10:56:50.744Z,97847.69
2022-10-24T10:59:54.075Z,97850.63
2022-10-24T11:02:41.099Z,97833.25
2022-10-24T11:05:15.350Z,97838.34
2022-10-24T11:08:17.180Z,97835.09
2022-10-24T11:11:08.955Z,97829.91
2022-10-24T11:13:39.488Z,97830.56
2022-10-24T11:16:13.539Z,97826.44
2022-10-24T11:18:44.885Z,97826.84
2022-10-24T11:21:18.826Z,97829.88
2022-10-24T11:24:11.147Z,97822.19
2022-10-24T11:26:50.756Z,97822.31
2022-10-24T11:29:24.386Z,97819.91
2022-10-24T11:31:58.411Z,97808.31
2022-10-24T11:34:54.874Z,97810.06
2022-10-24T11:37:34.206Z,97791.38
2022-10-24T11:40:10.908Z,97788.09
2022-10-24T11:43:10.686Z,97787.19
2022-10-24T11:45:54.386Z,97799.91
2022-10-24T11:49:04.277Z,97787.22
2022-10-24T11:51:41.308Z,97782.50
2022-10-24T11:54:17.318Z,97774.69
2022-10-24T11:56:55.711Z,97780.22
2022-10-24T11:59:26.962Z,97787.38
2022-10-24T12:01:55.425Z,97769.78
2022-10-24T12:05:00.708Z,97772.19
2022-10-24T12:07:47.637Z,97762.41
2022-10-24T12:10:37.897Z,97766.97
2022-10-24T12:13:37.834Z,97758.75
2022-10-24T12:16:39.862Z,97754.31
2022-10-24T12:19:18.709Z,97756.75
2022-10-24T12:21:54.971Z,97755.50
2022-10-24T12:24:33.207Z,97747.38
2022-10-24T12:27:03.935Z,97747.25
2022-10-24T12:29:34.329Z,97745.25
2022-10-24T12:32:39.679Z,97742.75
2022-10-24T12:35:34.318Z,97746.03
2022-10-24T12:38:03.446Z,97742.91
2022-10-24T12:40:47.213Z,97735.09
2022-10-24T12:43:30.693Z,97735.88
2022-10-24T12:46:26.028Z,97738.38
2022-10-24T12:48:57.480Z,97734.31
2022-10-24T12:51:32.450Z,97737.56
2022-10-24T12:54:04.921Z,97738.72
2022-10-24T12:56:34.008Z,97737.47
2022-10-24T12:59:04.731Z,97735.13
2022-10-24T13:01:38.058Z,97724.59
2022-10-24T13:04:15.753Z,97720.06
2022-10-24T13:06:48.901Z,97731.75
2022-10-24T13:09:32.657Z,97719.94
2022-10-24T13:12:08.072Z,97724.50
2022-10-24T13:14:36.784Z,97724.25
2022-10-24T13:17:17.494Z,97719.94
2022-10-24T13:19:46.459Z,97718.06
2022-10-24T13:22:29.208Z,97726.94
2022-10-24T13:24:58.307Z,97727.84
2022-10-24T13:27:31.297Z,97720.88
2022-10-24T13:30:01.592Z,97719.72
2022-10-24T13:32:32.347Z,97726.31
2022-10-24T13:35:00.987Z,97715.00
2022-10-24T13:37:50.925Z,97722.50
2022-10-24T13:40:32.973Z,97720.34
2022-10-24T13:43:07.655Z,97712.31
2022-10-24T13:45:53.050Z,97719.41
2022-10-24T13:48:26.801Z,97715.88
2022-10-24T13:51:11.228Z,97712.09
2022-10-24T13:54:03.002Z,97700.50
2022-10-24T13:56:32.369Z,97709.63
2022-10-24T13:59:00.852Z,97706.06
2022-10-24T14:01:36.633Z,97707.78
2022-10-24T14:04:07.553Z,97705.88
2022-10-24T14:06:36.042Z,97703.88
2022-10-24T14:09:11.477Z,97694.06
2022-10-24T14:11:53.508Z,97696.88
2022-10-24T14:14:40.463Z,97694.25
2022-10-24T14:17:28.799Z,97691.13
2022-10-24T14:20:10.156Z,97686.31
2022-10-24T14:22:41.420Z,97691.91
2022-10-24T14:25:29.100Z,97687.41
2022-10-24T14:28:00.419Z,97700.13
2022-10-24T14:30:34.410Z,97697.84
2022-10-24T14:33:15.244Z,97698.94
2022-10-24T14:35:43.613Z,97706.38
2022-10-24T14:38:14.131Z,97706.19
2022-10-24T14:40:46.463Z,97705.03
2022-10-24T14:46:12.076Z,97697.22
2022-10-24T14:48:45.181Z,97690.22
2022-10-24T14:51:32.778Z,97696.22
2022-10-24T14:54:04.066Z,97694.56
2022-10-24T14:56:36.249Z,97689.31
2022-10-24T14:59:08.342Z,97702.00
2022-10-24T15:01:37.002Z,97696.97
2022-10-24T15:04:10.919Z,97701.59
2022-10-24T15:06:40.249Z,97690.94
2022-10-24T15:09:11.775Z,97702.94
2022-10-24T15:12:00.041Z,97698.41
2022-10-24T15:14:40.439Z,97689.69
2022-10-24T15:17:18.978Z,97699.66
2022-10-24T15:19:47.859Z,97700.25
2022-10-24T15:22:35.859Z,97706.50
2022-10-24T15:25:08.889Z,97699.38
2022-10-24T15:27:41.539Z,97704.22
2022-10-24T15:30:22.521Z,97708.81
2022-10-24T15:32:54.040Z,97705.97
2022-10-24T15:35:23.002Z,97713.94
2022-10-24T15:37:58.015Z,97707.03
2022-10-24T15:40:30.106Z,97717.91
2022-10-24T15:42:59.178Z,97719.66
2022-10-24T15:45:29.015Z,97721.06
2022-10-24T15:47:57.417Z,97715.03
2022-10-24T15:50:25.887Z,97716.56
2022-10-24T15:52:56.407Z,97719.94
2022-10-24T15:55:26.395Z,97731.63
2022-10-24T15:57:55.104Z,97727.72
2022-10-24T16:00:23.713Z,97719.34
2022-10-24T16:02:53.562Z,97730.56
2022-10-24T16:05:26.734Z,97733.72
2022-10-24T16:07:59.104Z,97724.84
2022-10-24T16:10:28.438Z,97735.94
2022-10-24T16:12:56.750Z,97739.38
2022-10-24T16:15:28.939Z,97738.69
2022-10-24T16:17:59.555Z,97742.47
2022-10-24T16:20:30.408Z,97736.91
2022-10-24T16:22:59.817Z,97742.09
2022-10-24T16:25:33.933Z,97745.41
2022-10-24T16:28:04.871Z,97743.88
2022-10-24T16:30:35.987Z,97740.16
2022-10-24T16:33:07.418Z,97732.00
2022-10-24T16:35:37.700Z,97738.72
2022-10-24T16:38:08.433Z,97731.47
2022-10-24T16:43:16.086Z,97742.56
2022-10-24T16:45:48.696Z,97745.22
2022-10-24T16:48:18.068Z,97744.84
2022-10-24T16:50:47.382Z,97752.97
2022-10-24T16:53:19.978Z,97745.09
2022-10-24T16:55:50.992Z,97749.56
2022-10-24T16:58:20.844Z,97748.19
2022-10-24T17:00:50.887Z,97745.91
2022-10-24T17:03:24.533Z,97747.47
2022-10-24T17:05:54.538Z,97751.75
2022-10-24T17:08:26.999Z,97750.94
2022-10-24T17:10:56.027Z,97745.47
2022-10-24T17:13:28.884Z,97745.19
2022-10-24T17:16:04.787Z,97749.59
2022-10-24T17:18:36.196Z,97743.88
2022-10-24T17:21:09.564Z,97744.63
2022-10-24T17:23:38.424Z,97749.09
2022-10-24T17:26:16.288Z,97743.91
2022-10-24T17:28:45.527Z,97734.19
2022-10-24T17:31:18.769Z,97744.66
2022-10-24T17:34:01.353Z,97742.88
2022-10-24T17:36:42.874Z,97747.50
2022-10-24T17:42:16.415Z,97744.41
2022-10-24T17:44:50.198Z,97738.00
2022-10-24T17:47:23.346Z,97744.97
2022-10-24T17:49:55.471Z,97747.88
2022-10-24T17:52:28.020Z,97737.19
2022-10-24T17:54:59.851Z,97749.88
2022-10-24T17:57:33.502Z,97750.22
2022-10-24T18:00:04.063Z,97757.69
2022-10-24T18:02:56.909Z,97740.41
2022-10-24T18:05:54.216Z,97742.44
2022-10-24T18:08:26.327Z,97738.41
2022-10-24T18:11:09.775Z,97729.38
2022-10-24T18:13:42.736Z,97732.63
2022-10-24T18:16:16.325Z,97739.84
2022-10-24T18:18:51.047Z,97736.13
2022-10-24T18:21:30.752Z,97732.63
2022-10-24T18:24:10.008Z,97733.72
2022-10-24T18:26:43.306Z,97714.16
2022-10-24T18:29:13.884Z,97736.81
2022-10-24T18:31:48.232Z,97729.91
2022-10-24T18:34:19.946Z,97742.59
2022-10-24T18:36:48.370Z,97736.31
2022-10-24T18:39:26.444Z,97737.84
2022-10-24T18:42:26.047Z,97735.16
2022-10-24T18:44:59.776Z,97740.53
2022-10-24T18:47:33.949Z,97737.63
2022-10-24T18:50:03.113Z,97738.03
2022-10-24T18:52:50.635Z,97740.81
2022-10-24T18:55:25.521Z,97740.94
2022-10-24T18:57:54.305Z,97736.91
2022-10-24T19:00:28.812Z,97737.31
2022-10-24T19:03:28.596Z,97734.97
2022-10-24T19:06:23.253Z,97737.69
2022-10-24T19:08:51.981Z,97739.81
2022-10-24T19:11:21.465Z,97731.94
2022-10-24T19:13:50.184Z,97741.97
2022-10-24T19:16:24.112Z,97739.38
2022-10-24T19:18:58.171Z,97745.41
2022-10-24T19:21:30.528Z,97736.66
2022-10-24T19:23:59.752Z,97738.69
2022-10-24T19:26:29.914Z,97741.00
2022-10-24T19:29:01.121Z,97735.34
2022-10-24T19:31:35.158Z,97740.66
2022-10-24T19:34:05.980Z,97747.78
2022-10-24T19:36:35.642Z,97739.97
2022-10-24T19:39:05.883Z,97736.41
2022-10-24T19:41:36.896Z,97745.53
2022-10-24T19:44:07.885Z,97746.75
2022-10-24T19:46:37.635Z,97749.75
2022-10-24T19:49:06.180Z,97741.28
2022-10-24T19:51:35.959Z,97741.28
2022-10-24T19:54:08.343Z,97745.91
2022-10-24T19:56:45.364Z,97745.59
2022-10-24T19:59:14.760Z,97735.91
2022-10-24T20:01:45.976Z,97739.03
2022-10-24T20:04:15.497Z,97745.59
2022-10-24T20:06:48.253Z,97752.47
2022-10-24T20:09:19.638Z,97752.56
2022-10-24T20:11:48.817Z,97746.88
2022-10-24T20:14:17.608Z,97753.91
2022-10-24T20:16:45.974Z,97748.81
2022-10-24T20:19:14.406Z,97749.28
2022-10-24T20:21:43.459Z,97746.13
2022-10-24T20:24:13.637Z,97747.31
2022-10-24T20:26:42.261Z,97737.22
2022-10-24T20:29:15.120Z,97753.72
2022-10-24T20:31:46.060Z,97752.03
2022-10-24T20:34:14.642Z,97744.97
2022-10-24T20:36:48.846Z,97757.78
2022-10-24T20:39:21.414Z,97750.25
2022-10-24T20:41:58.626Z,97745.41
2022-10-24T20:44:27.125Z,97744.13
2022-10-24T20:46:56.934Z,97744.16
2022-10-24T20:49:26.000Z,97739.34
2022-10-24T20:51:55.177Z,97739.34
2022-10-24T20:54:23.706Z,97744.78
2022-10-24T20:56:53.698Z,97740.13
2022-10-24T20:59:23.526Z,97739.81
2022-10-24T21:01:52.690Z,97734.41
2022-10-24T21:04:21.239Z,97741.47
2022-10-24T21:06:49.685Z,97747.03
2022-10-24T21:09:18.134Z,97741.78
2022-10-24T21:11:47.174Z,97740.94
2022-10-24T21:14:16.547Z,97735.84
2022-10-24T21:16:45.020Z,97741.09
2022-10-24T21:19:13.524Z,97745.50
2022-10-24T21:21:42.413Z,97746.00
2022-10-24T21:24:18.212Z,97745.53
2022-10-24T21:26:46.682Z,97737.44
2022-10-24T21:29:32.121Z,97744.44
2022-10-24T21:32:00.972Z,97737.16
2022-10-24T21:34:31.792Z,97740.50
2022-10-24T21:37:03.885Z,97732.25
2022-10-24T21:39:32.324Z,97738.22
2022-10-24T21:42:00.761Z,97736.88
2022-10-24T21:44:29.262Z,97733.41
2022-10-24T21:46:57.665Z,97734.00
2022-10-24T21:49:25.997Z,97728.88
2022-10-24T21:51:54.374Z,97721.84
2022-10-24T21:54:23.908Z,97738.94
2022-10-24T21:56:52.928Z,97736.00
2022-10-24T21:59:21.460Z,97738.22
2022-10-24T22:01:50.737Z,97733.22
2022-10-24T22:04:20.639Z,97736.84
2022-10-24T22:06:48.991Z,97732.44
2022-10-24T22:09:19.373Z,97733.63
2022-10-24T22:11:47.739Z,97735.75
2022-10-24T22:14:16.494Z,97739.84
2022-10-24T22:16:46.012Z,97728.94
2022-10-24T22:19:14.517Z,97729.91
2022-10-24T22:21:47.764Z,97732.56
2022-10-24T22:24:25.077Z,97724.19
2022-10-24T22:26:53.808Z,97731.56
2022-10-24T22:29:23.070Z,97717.59
2022-10-24T22:31:52.275Z,97723.94
2022-10-24T22:34:23.630Z,97716.50
2022-10-24T22:37:15.989Z,97725.88
2022-10-24T22:39:44.615Z,97711.69
2022-10-24T22:42:15.959Z,97716.47
2022-10-24T22:44:46.463Z,97715.97
2022-10-24T22:47:43.843Z,97715.50
2022-10-24T22:50:45.849Z,97703.81
2022-10-24T22:53:15.138Z,97713.09
2022-10-24T22:56:11.692Z,97710.66
2022-10-24T22:58:41.512Z,97710.25
2022-10-24T23:01:27.826Z,97703.53
2022-10-24T23:04:13.421Z,97696.22
2022-10-24T23:07:02.972Z,97703.16
2022-10-24T23:09:31.271Z,97699.28
2022-10-24T23:11:59.791Z,97699.38
2022-10-24T23:14:29.286Z,97703.06
2022-10-24T23:16:59.202Z,97700.94
2022-10-24T23:19:31.816Z,97703.72
2022-10-24T23:22:16.596Z,97696.47
2022-10-24T23:24:45.323Z,97701.38
2022-10-24T23:27:38.290Z,97710.69
2022-10-24T23:30:18.389Z,97700.41
2022-10-24T23:32:47.757Z,97697.84
2022-10-24T23:35:18.713Z,97696.78
2022-10-24T23:37:51.226Z,97692.75
2022-10-24T23:40:34.823Z,97694.44
2022-10-24T23:43:04.490Z,97704.56
2022-10-24T23:45:36.045Z,97702.22
2022-10-24T23:48:43.248Z,97704.16
2022-10-24T23:51:16.757Z,97704.19
2022-10-24T23:53:55.381Z,97709.31
2022-10-24T23:56:28.634Z,97712.00
2022-10-24T23:58:57.050Z,97706.69
